sensor_id;sensor_type;location;lat;lon;timestamp;P1;durP1;ratioP1;P2;durP2;ratioP2
74383;SDS011;62824;52.994;-3.936;2023-12-07T00:01:19;3.92;;;2.30;;
74383;SDS011;62824;52.994;-3.936;2023-12-07T00:03:44;3.30;;;1.83;;
74383;SDS011;62824;52.994;-3.936;2023-12-07T00:06:10;2.05;;;1.48;;
74383;SDS011;62824;52.994;-3.936;2023-12-07T00:08:36;3.15;;;1.80;;
74383;SDS011;62824;52.994;-3.936;2023-12-07T00:11:02;2.55;;;1.50;;
74383;SDS011;62824;52.994;-3.936;2023-12-07T00:13:28;2.10;;;1.52;;
74383;SDS011;62824;52.994;-3.936;2023-12-07T00:15:53;2.13;;;1.60;;
74383;SDS011;62824;52.994;-3.936;2023-12-07T00:18:19;3.10;;;1.60;;
74383;SDS011;62824;52.994;-3.936;2023-12-07T00:20:45;4.10;;;1.90;;
74383;SDS011;62824;52.994;-3.936;2023-12-07T00:23:11;2.22;;;1.65;;
74383;SDS011;62824;52.994;-3.936;2023-12-07T00:25:36;1.65;;;1.33;;
74383;SDS011;62824;52.994;-3.936;2023-12-07T00:28:03;1.50;;;1.25;;
74383;SDS011;62824;52.994;-3.936;2023-12-07T00:30:30;2.10;;;1.50;;
74383;SDS011;62824;52.994;-3.936;2023-12-07T00:32:56;1.92;;;1.55;;
74383;SDS011;62824;52.994;-3.936;2023-12-07T00:35:21;1.58;;;1.20;;
74383;SDS011;62824;52.994;-3.936;2023-12-07T00:37:47;2.15;;;1.17;;
74383;SDS011;62824;52.994;-3.936;2023-12-07T00:40:13;1.85;;;1.45;;
74383;SDS011;62824;52.994;-3.936;2023-12-07T00:42:39;2.55;;;1.52;;
74383;SDS011;62824;52.994;-3.936;2023-12-07T00:45:05;1.92;;;1.50;;
74383;SDS011;62824;52.994;-3.936;2023-12-07T00:47:31;2.17;;;1.40;;
74383;SDS011;62824;52.994;-3.936;2023-12-07T00:49:57;3.45;;;1.45;;
74383;SDS011;62824;52.994;-3.936;2023-12-07T00:52:23;1.75;;;1.27;;
74383;SDS011;62824;52.994;-3.936;2023-12-07T00:54:48;1.42;;;1.25;;
74383;SDS011;62824;52.994;-3.936;2023-12-07T00:57:14;3.13;;;1.48;;
74383;SDS011;62824;52.994;-3.936;2023-12-07T00:59:40;2.80;;;1.70;;
74383;SDS011;62824;52.994;-3.936;2023-12-07T01:02:06;1.88;;;1.25;;
74383;SDS011;62824;52.994;-3.936;2023-12-07T01:04:32;2.50;;;1.42;;
74383;SDS011;62824;52.994;-3.936;2023-12-07T01:06:58;2.75;;;1.48;;
74383;SDS011;62824;52.994;-3.936;2023-12-07T01:09:24;2.80;;;1.80;;
74383;SDS011;62824;52.994;-3.936;2023-12-07T01:11:50;3.05;;;1.65;;
74383;SDS011;62824;52.994;-3.936;2023-12-07T01:14:16;2.33;;;1.55;;
74383;SDS011;62824;52.994;-3.936;2023-12-07T01:16:43;2.05;;;1.45;;
74383;SDS011;62824;52.994;-3.936;2023-12-07T01:19:09;3.05;;;1.70;;
74383;SDS011;62824;52.994;-3.936;2023-12-07T01:21:35;2.42;;;1.45;;
74383;SDS011;62824;52.994;-3.936;2023-12-07T01:24:01;3.08;;;1.60;;
74383;SDS011;62824;52.994;-3.936;2023-12-07T01:26:27;2.65;;;1.50;;
74383;SDS011;62824;52.994;-3.936;2023-12-07T01:28:53;2.00;;;1.35;;
74383;SDS011;62824;52.994;-3.936;2023-12-07T01:31:18;2.40;;;1.50;;
74383;SDS011;62824;52.994;-3.936;2023-12-07T01:33:44;2.85;;;1.20;;
74383;SDS011;62824;52.994;-3.936;2023-12-07T01:36:10;3.05;;;1.35;;
74383;SDS011;62824;52.994;-3.936;2023-12-07T01:38:36;4.60;;;1.40;;
74383;SDS011;62824;52.994;-3.936;2023-12-07T01:41:02;2.15;;;1.70;;
74383;SDS011;62824;52.994;-3.936;2023-12-07T01:43:28;1.95;;;1.10;;
74383;SDS011;62824;52.994;-3.936;2023-12-07T01:45:54;2.38;;;1.40;;
74383;SDS011;62824;52.994;-3.936;2023-12-07T01:48:22;1.83;;;1.10;;
74383;SDS011;62824;52.994;-3.936;2023-12-07T01:50:53;2.80;;;1.35;;
74383;SDS011;62824;52.994;-3.936;2023-12-07T01:53:21;1.95;;;1.30;;
74383;SDS011;62824;52.994;-3.936;2023-12-07T01:55:48;2.15;;;1.25;;
74383;SDS011;62824;52.994;-3.936;2023-12-07T01:58:16;4.13;;;1.25;;
74383;SDS011;62824;52.994;-3.936;2023-12-07T02:00:43;1.55;;;1.20;;
74383;SDS011;62824;52.994;-3.936;2023-12-07T02:03:09;2.35;;;1.52;;
74383;SDS011;62824;52.994;-3.936;2023-12-07T02:05:35;1.63;;;0.95;;
74383;SDS011;62824;52.994;-3.936;2023-12-07T02:08:02;1.55;;;1.08;;
74383;SDS011;62824;52.994;-3.936;2023-12-07T02:10:29;1.73;;;1.20;;
74383;SDS011;62824;52.994;-3.936;2023-12-07T02:12:55;1.58;;;1.17;;
74383;SDS011;62824;52.994;-3.936;2023-12-07T02:15:21;1.30;;;1.00;;
74383;SDS011;62824;52.994;-3.936;2023-12-07T02:23:17;1.15;;;0.88;;
74383;SDS011;62824;52.994;-3.936;2023-12-07T02:25:48;1.73;;;1.13;;
74383;SDS011;62824;52.994;-3.936;2023-12-07T02:28:17;1.00;;;0.90;;
74383;SDS011;62824;52.994;-3.936;2023-12-07T02:30:43;1.67;;;0.85;;
74383;SDS011;62824;52.994;-3.936;2023-12-07T02:33:09;1.00;;;0.90;;
74383;SDS011;62824;52.994;-3.936;2023-12-07T02:35:36;2.15;;;0.90;;
74383;SDS011;62824;52.994;-3.936;2023-12-07T02:38:03;1.42;;;0.90;;
74383;SDS011;62824;52.994;-3.936;2023-12-07T02:40:30;0.63;;;0.55;;
74383;SDS011;62824;52.994;-3.936;2023-12-07T02:42:57;1.60;;;0.68;;
74383;SDS011;62824;52.994;-3.936;2023-12-07T02:45:24;1.63;;;0.90;;
74383;SDS011;62824;52.994;-3.936;2023-12-07T02:47:51;0.73;;;0.70;;
74383;SDS011;62824;52.994;-3.936;2023-12-07T02:50:17;1.40;;;0.75;;
74383;SDS011;62824;52.994;-3.936;2023-12-07T02:52:43;1.55;;;1.10;;
74383;SDS011;62824;52.994;-3.936;2023-12-07T02:55:09;1.42;;;0.88;;
74383;SDS011;62824;52.994;-3.936;2023-12-07T02:57:34;1.38;;;0.88;;
74383;SDS011;62824;52.994;-3.936;2023-12-07T03:00:00;1.50;;;1.00;;
74383;SDS011;62824;52.994;-3.936;2023-12-07T03:02:36;0.80;;;0.70;;
74383;SDS011;62824;52.994;-3.936;2023-12-07T03:05:03;2.65;;;0.70;;
74383;SDS011;62824;52.994;-3.936;2023-12-07T03:07:30;0.60;;;0.60;;
74383;SDS011;62824;52.994;-3.936;2023-12-07T03:09:55;2.58;;;0.80;;
74383;SDS011;62824;52.994;-3.936;2023-12-07T03:12:21;1.25;;;0.82;;
74383;SDS011;62824;52.994;-3.936;2023-12-07T03:14:48;1.33;;;0.88;;
74383;SDS011;62824;52.994;-3.936;2023-12-07T03:17:14;1.67;;;0.95;;
74383;SDS011;62824;52.994;-3.936;2023-12-07T03:19:40;1.48;;;0.70;;
74383;SDS011;62824;52.994;-3.936;2023-12-07T03:22:06;1.27;;;0.70;;
74383;SDS011;62824;52.994;-3.936;2023-12-07T03:24:33;1.88;;;0.63;;
74383;SDS011;62824;52.994;-3.936;2023-12-07T03:27:00;0.40;;;0.40;;
74383;SDS011;62824;52.994;-3.936;2023-12-07T03:29:25;0.50;;;0.50;;
74383;SDS011;62824;52.994;-3.936;2023-12-07T03:31:51;0.38;;;0.38;;
74383;SDS011;62824;52.994;-3.936;2023-12-07T03:34:17;0.30;;;0.28;;
74383;SDS011;62824;52.994;-3.936;2023-12-07T03:36:46;0.65;;;0.60;;
74383;SDS011;62824;52.994;-3.936;2023-12-07T03:39:13;1.15;;;0.60;;
74383;SDS011;62824;52.994;-3.936;2023-12-07T03:41:40;0.47;;;0.47;;
74383;SDS011;62824;52.994;-3.936;2023-12-07T03:44:06;0.73;;;0.55;;
74383;SDS011;62824;52.994;-3.936;2023-12-07T03:46:31;0.55;;;0.52;;
74383;SDS011;62824;52.994;-3.936;2023-12-07T03:48:57;1.20;;;0.43;;
74383;SDS011;62824;52.994;-3.936;2023-12-07T03:51:24;0.60;;;0.52;;
74383;SDS011;62824;52.994;-3.936;2023-12-07T03:53:54;0.77;;;0.57;;
74383;SDS011;62824;52.994;-3.936;2023-12-07T03:56:27;0.82;;;0.43;;
74383;SDS011;62824;52.994;-3.936;2023-12-07T03:58:54;0.20;;;0.20;;
74383;SDS011;62824;52.994;-3.936;2023-12-07T04:01:24;0.30;;;0.30;;
74383;SDS011;62824;52.994;-3.936;2023-12-07T04:03:51;0.40;;;0.40;;
74383;SDS011;62824;52.994;-3.936;2023-12-07T04:06:18;0.38;;;0.30;;
74383;SDS011;62824;52.994;-3.936;2023-12-07T04:08:45;0.38;;;0.30;;
74383;SDS011;62824;52.994;-3.936;2023-12-07T04:11:12;0.40;;;0.40;;
74383;SDS011;62824;52.994;-3.936;2023-12-07T04:13:38;0.40;;;0.40;;
74383;SDS011;62824;52.994;-3.936;2023-12-07T04:16:05;0.65;;;0.52;;
74383;SDS011;62824;52.994;-3.936;2023-12-07T04:18:31;0.50;;;0.30;;
74383;SDS011;62824;52.994;-3.936;2023-12-07T04:20:57;0.45;;;0.45;;
74383;SDS011;62824;52.994;-3.936;2023-12-07T04:23:23;0.65;;;0.40;;
74383;SDS011;62824;52.994;-3.936;2023-12-07T04:25:49;0.10;;;0.10;;
74383;SDS011;62824;52.994;-3.936;2023-12-07T04:28:14;0.50;;;0.40;;
74383;SDS011;62824;52.994;-3.936;2023-12-07T04:30:40;0.30;;;0.30;;
74383;SDS011;62824;52.994;-3.936;2023-12-07T04:33:06;0.50;;;0.50;;
74383;SDS011;62824;52.994;-3.936;2023-12-07T04:35:32;0.50;;;0.40;;
74383;SDS011;62824;52.994;-3.936;2023-12-07T04:37:57;0.30;;;0.30;;
74383;SDS011;62824;52.994;-3.936;2023-12-07T04:40:26;0.70;;;0.52;;
74383;SDS011;62824;52.994;-3.936;2023-12-07T04:42:52;0.40;;;0.40;;
74383;SDS011;62824;52.994;-3.936;2023-12-07T04:45:18;0.70;;;0.40;;
74383;SDS011;62824;52.994;-3.936;2023-12-07T04:47:44;0.30;;;0.30;;
74383;SDS011;62824;52.994;-3.936;2023-12-07T04:50:11;0.45;;;0.20;;
74383;SDS011;62824;52.994;-3.936;2023-12-07T04:52:37;0.20;;;0.20;;
74383;SDS011;62824;52.994;-3.936;2023-12-07T04:55:04;0.28;;;0.28;;
74383;SDS011;62824;52.994;-3.936;2023-12-07T04:57:33;0.50;;;0.50;;
74383;SDS011;62824;52.994;-3.936;2023-12-07T05:00:00;0.30;;;0.30;;
74383;SDS011;62824;52.994;-3.936;2023-12-07T05:02:26;1.63;;;0.40;;
74383;SDS011;62824;52.994;-3.936;2023-12-07T05:04:53;0.22;;;0.10;;
74383;SDS011;62824;52.994;-3.936;2023-12-07T05:07:19;0.52;;;0.35;;
74383;SDS011;62824;52.994;-3.936;2023-12-07T05:09:45;0.43;;;0.30;;
74383;SDS011;62824;52.994;-3.936;2023-12-07T05:12:11;0.38;;;0.32;;
74383;SDS011;62824;52.994;-3.936;2023-12-07T05:14:37;0.40;;;0.20;;
74383;SDS011;62824;52.994;-3.936;2023-12-07T05:17:02;0.25;;;0.25;;
74383;SDS011;62824;52.994;-3.936;2023-12-07T05:19:30;0.20;;;0.20;;
74383;SDS011;62824;52.994;-3.936;2023-12-07T05:21:56;0.55;;;0.30;;
74383;SDS011;62824;52.994;-3.936;2023-12-07T05:24:21;0.47;;;0.47;;
74383;SDS011;62824;52.994;-3.936;2023-12-07T05:26:47;0.30;;;0.30;;
74383;SDS011;62824;52.994;-3.936;2023-12-07T05:29:14;0.35;;;0.35;;
74383;SDS011;62824;52.994;-3.936;2023-12-07T05:31:40;0.20;;;0.20;;
74383;SDS011;62824;52.994;-3.936;2023-12-07T05:34:06;0.25;;;0.15;;
74383;SDS011;62824;52.994;-3.936;2023-12-07T05:36:32;0.30;;;0.30;;
74383;SDS011;62824;52.994;-3.936;2023-12-07T05:38:58;0.82;;;0.40;;
74383;SDS011;62824;52.994;-3.936;2023-12-07T05:41:24;0.20;;;0.20;;
74383;SDS011;62824;52.994;-3.936;2023-12-07T05:43:51;0.25;;;0.25;;
74383;SDS011;62824;52.994;-3.936;2023-12-07T05:46:17;0.28;;;0.28;;
74383;SDS011;62824;52.994;-3.936;2023-12-07T05:48:44;0.60;;;0.60;;
74383;SDS011;62824;52.994;-3.936;2023-12-07T05:51:13;0.35;;;0.30;;
74383;SDS011;62824;52.994;-3.936;2023-12-07T05:53:42;0.77;;;0.30;;
74383;SDS011;62824;52.994;-3.936;2023-12-07T05:56:09;0.40;;;0.28;;
74383;SDS011;62824;52.994;-3.936;2023-12-07T05:58:35;0.32;;;0.32;;
74383;SDS011;62824;52.994;-3.936;2023-12-07T06:01:01;0.30;;;0.30;;
74383;SDS011;62824;52.994;-3.936;2023-12-07T06:03:28;0.17;;;0.17;;
74383;SDS011;62824;52.994;-3.936;2023-12-07T06:05:54;0.20;;;0.20;;
74383;SDS011;62824;52.994;-3.936;2023-12-07T06:08:20;0.47;;;0.40;;
74383;SDS011;62824;52.994;-3.936;2023-12-07T06:10:47;0.15;;;0.15;;
74383;SDS011;62824;52.994;-3.936;2023-12-07T06:13:13;0.35;;;0.35;;
74383;SDS011;62824;52.994;-3.936;2023-12-07T06:15:39;0.20;;;0.20;;
74383;SDS011;62824;52.994;-3.936;2023-12-07T06:18:05;1.08;;;0.52;;
74383;SDS011;62824;52.994;-3.936;2023-12-07T06:20:32;0.43;;;0.25;;
74383;SDS011;62824;52.994;-3.936;2023-12-07T06:22:58;0.20;;;0.20;;
74383;SDS011;62824;52.994;-3.936;2023-12-07T06:25:24;0.20;;;0.20;;
74383;SDS011;62824;52.994;-3.936;2023-12-07T06:27:50;0.38;;;0.38;;
74383;SDS011;62824;52.994;-3.936;2023-12-07T06:30:16;0.20;;;0.20;;
74383;SDS011;62824;52.994;-3.936;2023-12-07T06:32:43;0.35;;;0.30;;
74383;SDS011;62824;52.994;-3.936;2023-12-07T06:35:11;0.08;;;0.08;;
74383;SDS011;62824;52.994;-3.936;2023-12-07T06:37:41;0.45;;;0.30;;
74383;SDS011;62824;52.994;-3.936;2023-12-07T06:40:08;0.35;;;0.35;;
74383;SDS011;62824;52.994;-3.936;2023-12-07T06:42:35;0.20;;;0.20;;
74383;SDS011;62824;52.994;-3.936;2023-12-07T06:45:01;1.23;;;0.50;;
74383;SDS011;62824;52.994;-3.936;2023-12-07T06:47:27;0.50;;;0.40;;
74383;SDS011;62824;52.994;-3.936;2023-12-07T06:49:53;0.20;;;0.20;;
74383;SDS011;62824;52.994;-3.936;2023-12-07T06:52:20;0.63;;;0.43;;
74383;SDS011;62824;52.994;-3.936;2023-12-07T06:54:46;0.47;;;0.47;;
74383;SDS011;62824;52.994;-3.936;2023-12-07T06:57:12;0.35;;;0.32;;
74383;SDS011;62824;52.994;-3.936;2023-12-07T06:59:38;0.57;;;0.40;;
74383;SDS011;62824;52.994;-3.936;2023-12-07T07:02:05;0.40;;;0.40;;
74383;SDS011;62824;52.994;-3.936;2023-12-07T07:04:31;0.77;;;0.40;;
74383;SDS011;62824;52.994;-3.936;2023-12-07T07:06:57;0.30;;;0.30;;
74383;SDS011;62824;52.994;-3.936;2023-12-07T07:09:23;0.40;;;0.40;;
74383;SDS011;62824;52.994;-3.936;2023-12-07T07:11:48;0.60;;;0.35;;
74383;SDS011;62824;52.994;-3.936;2023-12-07T07:14:15;0.93;;;0.40;;
74383;SDS011;62824;52.994;-3.936;2023-12-07T07:16:41;0.60;;;0.60;;
74383;SDS011;62824;52.994;-3.936;2023-12-07T07:19:07;0.30;;;0.30;;
74383;SDS011;62824;52.994;-3.936;2023-12-07T07:21:33;0.40;;;0.30;;
74383;SDS011;62824;52.994;-3.936;2023-12-07T07:23:59;0.40;;;0.22;;
74383;SDS011;62824;52.994;-3.936;2023-12-07T07:26:25;0.50;;;0.47;;
74383;SDS011;62824;52.994;-3.936;2023-12-07T07:28:51;0.63;;;0.63;;
74383;SDS011;62824;52.994;-3.936;2023-12-07T07:31:17;0.65;;;0.65;;
74383;SDS011;62824;52.994;-3.936;2023-12-07T07:33:44;0.50;;;0.50;;
74383;SDS011;62824;52.994;-3.936;2023-12-07T07:36:11;1.13;;;0.52;;
74383;SDS011;62824;52.994;-3.936;2023-12-07T07:38:43;0.57;;;0.57;;
74383;SDS011;62824;52.994;-3.936;2023-12-07T07:41:10;0.75;;;0.60;;
74383;SDS011;62824;52.994;-3.936;2023-12-07T07:43:36;1.00;;;0.80;;
74383;SDS011;62824;52.994;-3.936;2023-12-07T07:46:05;0.63;;;0.50;;
74383;SDS011;62824;52.994;-3.936;2023-12-07T07:48:31;0.65;;;0.57;;
74383;SDS011;62824;52.994;-3.936;2023-12-07T07:50:57;1.08;;;0.63;;
74383;SDS011;62824;52.994;-3.936;2023-12-07T07:53:23;1.08;;;0.63;;
74383;SDS011;62824;52.994;-3.936;2023-12-07T07:55:49;0.57;;;0.57;;
74383;SDS011;62824;52.994;-3.936;2023-12-07T07:58:15;1.40;;;0.77;;
74383;SDS011;62824;52.994;-3.936;2023-12-07T08:00:41;2.50;;;0.90;;
74383;SDS011;62824;52.994;-3.936;2023-12-07T08:03:07;0.50;;;0.40;;
74383;SDS011;62824;52.994;-3.936;2023-12-07T08:05:33;1.60;;;0.73;;
74383;SDS011;62824;52.994;-3.936;2023-12-07T08:07:59;0.65;;;0.40;;
74383;SDS011;62824;52.994;-3.936;2023-12-07T08:10:24;1.65;;;0.80;;
74383;SDS011;62824;52.994;-3.936;2023-12-07T08:12:50;0.45;;;0.45;;
74383;SDS011;62824;52.994;-3.936;2023-12-07T08:15:16;0.85;;;0.68;;
74383;SDS011;62824;52.994;-3.936;2023-12-07T08:17:41;0.52;;;0.50;;
74383;SDS011;62824;52.994;-3.936;2023-12-07T08:20:08;0.47;;;0.40;;
74383;SDS011;62824;52.994;-3.936;2023-12-07T08:22:39;0.52;;;0.52;;
74383;SDS011;62824;52.994;-3.936;2023-12-07T08:25:06;0.88;;;0.55;;
74383;SDS011;62824;52.994;-3.936;2023-12-07T08:27:33;1.08;;;0.50;;
74383;SDS011;62824;52.994;-3.936;2023-12-07T08:29:59;1.13;;;0.85;;
74383;SDS011;62824;52.994;-3.936;2023-12-07T08:32:25;0.82;;;0.70;;
74383;SDS011;62824;52.994;-3.936;2023-12-07T08:34:51;0.55;;;0.43;;
74383;SDS011;62824;52.994;-3.936;2023-12-07T08:37:17;2.63;;;0.50;;
74383;SDS011;62824;52.994;-3.936;2023-12-07T08:39:43;0.63;;;0.50;;
74383;SDS011;62824;52.994;-3.936;2023-12-07T08:42:10;0.35;;;0.35;;
74383;SDS011;62824;52.994;-3.936;2023-12-07T08:44:36;0.20;;;0.20;;
74383;SDS011;62824;52.994;-3.936;2023-12-07T08:47:02;0.50;;;0.40;;
74383;SDS011;62824;52.994;-3.936;2023-12-07T08:49:29;0.40;;;0.40;;
74383;SDS011;62824;52.994;-3.936;2023-12-07T08:51:55;0.30;;;0.20;;
74383;SDS011;62824;52.994;-3.936;2023-12-07T08:54:21;0.32;;;0.28;;
74383;SDS011;62824;52.994;-3.936;2023-12-07T08:56:47;0.40;;;0.30;;
74383;SDS011;62824;52.994;-3.936;2023-12-07T08:59:13;2.10;;;0.57;;
74383;SDS011;62824;52.994;-3.936;2023-12-07T09:01:40;0.40;;;0.40;;
74383;SDS011;62824;52.994;-3.936;2023-12-07T09:04:05;0.28;;;0.28;;
74383;SDS011;62824;52.994;-3.936;2023-12-07T09:06:31;0.85;;;0.55;;
74383;SDS011;62824;52.994;-3.936;2023-12-07T09:08:57;1.45;;;0.45;;
74383;SDS011;62824;52.994;-3.936;2023-12-07T09:11:23;0.43;;;0.43;;
74383;SDS011;62824;52.994;-3.936;2023-12-07T09:13:49;0.77;;;0.43;;
74383;SDS011;62824;52.994;-3.936;2023-12-07T09:16:15;0.63;;;0.63;;
74383;SDS011;62824;52.994;-3.936;2023-12-07T09:18:41;1.63;;;1.10;;
74383;SDS011;62824;52.994;-3.936;2023-12-07T09:21:10;0.60;;;0.50;;
74383;SDS011;62824;52.994;-3.936;2023-12-07T09:23:36;1.13;;;0.70;;
74383;SDS011;62824;52.994;-3.936;2023-12-07T09:26:02;2.67;;;0.40;;
74383;SDS011;62824;52.994;-3.936;2023-12-07T09:28:28;1.27;;;0.60;;
74383;SDS011;62824;52.994;-3.936;2023-12-07T09:30:54;0.40;;;0.40;;
74383;SDS011;62824;52.994;-3.936;2023-12-07T09:33:20;1.17;;;0.65;;
74383;SDS011;62824;52.994;-3.936;2023-12-07T09:35:46;0.43;;;0.40;;
74383;SDS011;62824;52.994;-3.936;2023-12-07T09:38:12;1.58;;;0.52;;
74383;SDS011;62824;52.994;-3.936;2023-12-07T09:40:38;0.28;;;0.28;;
74383;SDS011;62824;52.994;-3.936;2023-12-07T09:43:04;0.65;;;0.40;;
74383;SDS011;62824;52.994;-3.936;2023-12-07T09:45:29;0.85;;;0.50;;
74383;SDS011;62824;52.994;-3.936;2023-12-07T09:47:56;0.43;;;0.20;;
74383;SDS011;62824;52.994;-3.936;2023-12-07T09:50:25;0.40;;;0.40;;
74383;SDS011;62824;52.994;-3.936;2023-12-07T09:52:53;0.82;;;0.55;;
74383;SDS011;62824;52.994;-3.936;2023-12-07T09:55:21;1.83;;;1.23;;
74383;SDS011;62824;52.994;-3.936;2023-12-07T09:57:48;2.13;;;0.98;;
74383;SDS011;62824;52.994;-3.936;2023-12-07T10:00:14;0.32;;;0.32;;
74383;SDS011;62824;52.994;-3.936;2023-12-07T10:02:41;0.93;;;0.45;;
74383;SDS011;62824;52.994;-3.936;2023-12-07T10:05:08;0.38;;;0.30;;
74383;SDS011;62824;52.994;-3.936;2023-12-07T10:07:36;0.25;;;0.25;;
74383;SDS011;62824;52.994;-3.936;2023-12-07T10:10:04;0.30;;;0.30;;
74383;SDS011;62824;52.994;-3.936;2023-12-07T10:12:31;1.50;;;0.50;;
74383;SDS011;62824;52.994;-3.936;2023-12-07T10:14:59;0.57;;;0.30;;
74383;SDS011;62824;52.994;-3.936;2023-12-07T10:17:48;0.57;;;0.30;;
74383;SDS011;62824;52.994;-3.936;2023-12-07T10:20:28;0.95;;;0.40;;
74383;SDS011;62824;52.994;-3.936;2023-12-07T10:23:01;0.35;;;0.20;;
74383;SDS011;62824;52.994;-3.936;2023-12-07T10:25:29;0.40;;;0.30;;
74383;SDS011;62824;52.994;-3.936;2023-12-07T10:28:00;0.17;;;0.17;;
74383;SDS011;62824;52.994;-3.936;2023-12-07T10:30:31;0.30;;;0.30;;
74383;SDS011;62824;52.994;-3.936;2023-12-07T10:32:57;0.10;;;0.10;;
74383;SDS011;62824;52.994;-3.936;2023-12-07T10:35:23;0.70;;;0.50;;
74383;SDS011;62824;52.994;-3.936;2023-12-07T10:37:49;0.20;;;0.20;;
74383;SDS011;62824;52.994;-3.936;2023-12-07T10:40:19;0.20;;;0.20;;
74383;SDS011;62824;52.994;-3.936;2023-12-07T10:42:47;0.93;;;0.40;;
74383;SDS011;62824;52.994;-3.936;2023-12-07T10:45:13;0.17;;;0.17;;
74383;SDS011;62824;52.994;-3.936;2023-12-07T10:47:40;0.43;;;0.30;;
74383;SDS011;62824;52.994;-3.936;2023-12-07T10:50:09;1.95;;;0.35;;
74383;SDS011;62824;52.994;-3.936;2023-12-07T10:52:57;0.70;;;0.30;;
74383;SDS011;62824;52.994;-3.936;2023-12-07T10:55:29;0.20;;;0.20;;
74383;SDS011;62824;52.994;-3.936;2023-12-07T10:58:00;0.68;;;0.40;;
74383;SDS011;62824;52.994;-3.936;2023-12-07T11:00:27;0.57;;;0.35;;
74383;SDS011;62824;52.994;-3.936;2023-12-07T11:02:54;0.20;;;0.20;;
74383;SDS011;62824;52.994;-3.936;2023-12-07T11:05:20;0.50;;;0.40;;
74383;SDS011;62824;52.994;-3.936;2023-12-07T11:10:36;0.55;;;0.22;;
74383;SDS011;62824;52.994;-3.936;2023-12-07T11:13:24;0.43;;;0.43;;
74383;SDS011;62824;52.994;-3.936;2023-12-07T11:15:53;0.50;;;0.50;;
74383;SDS011;62824;52.994;-3.936;2023-12-07T11:18:19;1.13;;;0.40;;
74383;SDS011;62824;52.994;-3.936;2023-12-07T11:20:45;0.52;;;0.52;;
74383;SDS011;62824;52.994;-3.936;2023-12-07T11:23:16;0.32;;;0.32;;
74383;SDS011;62824;52.994;-3.936;2023-12-07T11:25:45;0.22;;;0.20;;
74383;SDS011;62824;52.994;-3.936;2023-12-07T11:28:12;0.32;;;0.30;;
74383;SDS011;62824;52.994;-3.936;2023-12-07T11:30:41;0.32;;;0.32;;
74383;SDS011;62824;52.994;-3.936;2023-12-07T11:33:08;1.40;;;1.33;;
74383;SDS011;62824;52.994;-3.936;2023-12-07T11:38:34;1.13;;;0.60;;
74383;SDS011;62824;52.994;-3.936;2023-12-07T11:41:01;0.47;;;0.43;;
74383;SDS011;62824;52.994;-3.936;2023-12-07T11:46:06;1.08;;;0.50;;
74383;SDS011;62824;52.994;-3.936;2023-12-07T11:48:32;0.77;;;0.30;;
74383;SDS011;62824;52.994;-3.936;2023-12-07T11:51:05;0.28;;;0.28;;
74383;SDS011;62824;52.994;-3.936;2023-12-07T11:53:36;0.30;;;0.30;;
74383;SDS011;62824;52.994;-3.936;2023-12-07T11:56:04;0.20;;;0.20;;
74383;SDS011;62824;52.994;-3.936;2023-12-07T11:58:31;0.50;;;0.50;;
74383;SDS011;62824;52.994;-3.936;2023-12-07T12:00:58;0.30;;;0.30;;
74383;SDS011;62824;52.994;-3.936;2023-12-07T12:03:28;4.13;;;0.93;;
74383;SDS011;62824;52.994;-3.936;2023-12-07T12:05:55;5.88;;;4.05;;
74383;SDS011;62824;52.994;-3.936;2023-12-07T12:08:21;0.25;;;0.25;;
74383;SDS011;62824;52.994;-3.936;2023-12-07T12:10:48;1.08;;;0.60;;
74383;SDS011;62824;52.994;-3.936;2023-12-07T12:13:16;0.65;;;0.55;;
74383;SDS011;62824;52.994;-3.936;2023-12-07T12:15:42;1.02;;;0.43;;
74383;SDS011;62824;52.994;-3.936;2023-12-07T12:18:08;0.40;;;0.28;;
74383;SDS011;62824;52.994;-3.936;2023-12-07T12:20:35;0.30;;;0.30;;
74383;SDS011;62824;52.994;-3.936;2023-12-07T12:23:01;0.20;;;0.20;;
74383;SDS011;62824;52.994;-3.936;2023-12-07T12:25:27;0.20;;;0.20;;
74383;SDS011;62824;52.994;-3.936;2023-12-07T12:27:58;0.75;;;0.35;;
74383;SDS011;62824;52.994;-3.936;2023-12-07T12:30:29;0.30;;;0.30;;
74383;SDS011;62824;52.994;-3.936;2023-12-07T12:32:56;0.38;;;0.32;;
74383;SDS011;62824;52.994;-3.936;2023-12-07T12:35:22;1.65;;;1.02;;
74383;SDS011;62824;52.994;-3.936;2023-12-07T12:37:49;0.40;;;0.20;;
74383;SDS011;62824;52.994;-3.936;2023-12-07T12:40:19;0.30;;;0.30;;
74383;SDS011;62824;52.994;-3.936;2023-12-07T12:42:47;0.73;;;0.60;;
74383;SDS011;62824;52.994;-3.936;2023-12-07T12:45:15;1.65;;;0.70;;
74383;SDS011;62824;52.994;-3.936;2023-12-07T12:47:43;2.20;;;0.98;;
74383;SDS011;62824;52.994;-3.936;2023-12-07T12:50:11;0.30;;;0.30;;
74383;SDS011;62824;52.994;-3.936;2023-12-07T12:52:40;0.35;;;0.20;;
74383;SDS011;62824;52.994;-3.936;2023-12-07T12:55:07;1.08;;;0.95;;
74383;SDS011;62824;52.994;-3.936;2023-12-07T12:57:36;2.13;;;1.27;;
74383;SDS011;62824;52.994;-3.936;2023-12-07T13:00:03;0.47;;;0.40;;
74383;SDS011;62824;52.994;-3.936;2023-12-07T13:02:31;0.80;;;0.47;;
74383;SDS011;62824;52.994;-3.936;2023-12-07T13:04:58;0.95;;;0.57;;
74383;SDS011;62824;52.994;-3.936;2023-12-07T13:07:24;0.25;;;0.25;;
74383;SDS011;62824;52.994;-3.936;2023-12-07T13:09:50;0.20;;;0.20;;
74383;SDS011;62824;52.994;-3.936;2023-12-07T13:12:16;0.28;;;0.28;;
74383;SDS011;62824;52.994;-3.936;2023-12-07T13:14:41;0.30;;;0.22;;
74383;SDS011;62824;52.994;-3.936;2023-12-07T13:17:07;1.75;;;1.10;;
74383;SDS011;62824;52.994;-3.936;2023-12-07T13:19:33;3.70;;;0.80;;
74383;SDS011;62824;52.994;-3.936;2023-12-07T13:22:00;2.40;;;0.80;;
74383;SDS011;62824;52.994;-3.936;2023-12-07T13:24:26;2.17;;;1.08;;
74383;SDS011;62824;52.994;-3.936;2023-12-07T13:26:52;2.92;;;1.10;;
74383;SDS011;62824;52.994;-3.936;2023-12-07T13:29:25;2.63;;;0.75;;
74383;SDS011;62824;52.994;-3.936;2023-12-07T13:31:51;1.65;;;0.77;;
74383;SDS011;62824;52.994;-3.936;2023-12-07T13:34:17;2.05;;;0.90;;
74383;SDS011;62824;52.994;-3.936;2023-12-07T13:36:43;1.60;;;0.77;;
74383;SDS011;62824;52.994;-3.936;2023-12-07T13:39:09;1.67;;;0.90;;
74383;SDS011;62824;52.994;-3.936;2023-12-07T13:41:37;1.10;;;0.57;;
74383;SDS011;62824;52.994;-3.936;2023-12-07T13:44:04;3.72;;;1.50;;
74383;SDS011;62824;52.994;-3.936;2023-12-07T13:46:30;0.85;;;0.32;;
74383;SDS011;62824;52.994;-3.936;2023-12-07T13:48:58;0.50;;;0.40;;
74383;SDS011;62824;52.994;-3.936;2023-12-07T13:51:24;2.35;;;1.60;;
74383;SDS011;62824;52.994;-3.936;2023-12-07T13:53:50;0.50;;;0.50;;
74383;SDS011;62824;52.994;-3.936;2023-12-07T13:56:20;2.45;;;0.85;;
74383;SDS011;62824;52.994;-3.936;2023-12-07T13:58:46;1.00;;;0.70;;
74383;SDS011;62824;52.994;-3.936;2023-12-07T14:01:12;1.15;;;0.70;;
74383;SDS011;62824;52.994;-3.936;2023-12-07T14:03:38;1.00;;;0.90;;
74383;SDS011;62824;52.994;-3.936;2023-12-07T14:06:06;1.27;;;0.73;;
74383;SDS011;62824;52.994;-3.936;2023-12-07T14:08:33;1.48;;;0.95;;
74383;SDS011;62824;52.994;-3.936;2023-12-07T14:10:59;1.05;;;0.60;;
74383;SDS011;62824;52.994;-3.936;2023-12-07T14:13:25;1.00;;;0.80;;
74383;SDS011;62824;52.994;-3.936;2023-12-07T14:15:51;1.95;;;0.30;;
74383;SDS011;62824;52.994;-3.936;2023-12-07T14:18:17;0.80;;;0.65;;
74383;SDS011;62824;52.994;-3.936;2023-12-07T14:20:43;3.60;;;1.40;;
74383;SDS011;62824;52.994;-3.936;2023-12-07T14:23:12;1.77;;;0.90;;
74383;SDS011;62824;52.994;-3.936;2023-12-07T14:25:37;1.58;;;0.90;;
74383;SDS011;62824;52.994;-3.936;2023-12-07T14:28:05;0.70;;;0.65;;
74383;SDS011;62824;52.994;-3.936;2023-12-07T14:30:31;0.47;;;0.47;;
74383;SDS011;62824;52.994;-3.936;2023-12-07T14:32:58;0.30;;;0.30;;
74383;SDS011;62824;52.994;-3.936;2023-12-07T14:35:25;0.20;;;0.15;;
74383;SDS011;62824;52.994;-3.936;2023-12-07T14:37:54;0.30;;;0.30;;
74383;SDS011;62824;52.994;-3.936;2023-12-07T14:40:30;1.45;;;0.85;;
74383;SDS011;62824;52.994;-3.936;2023-12-07T14:42:59;0.55;;;0.50;;
74383;SDS011;62824;52.994;-3.936;2023-12-07T14:45:25;0.75;;;0.40;;